sensor_id;sensor_type;location;lat;lon;timestamp;temperature;humidity
17599;DHT22;8918;52.092;5.232;2022-08-19T00:02:03;18.90;99.90
17599;DHT22;8918;52.092;5.232;2022-08-19T00:04:34;18.90;99.90
17599;DHT22;8918;52.092;5.232;2022-08-19T00:07:05;18.80;99.90
17599;DHT22;8918;52.092;5.232;2022-08-19T00:09:30;18.80;99.90
17599;DHT22;8918;52.092;5.232;2022-08-19T00:11:57;18.70;99.90
17599;DHT22;8918;52.092;5.232;2022-08-19T00:14:24;18.70;99.90
17599;DHT22;8918;52.092;5.232;2022-08-19T00:16:50;18.60;99.90
17599;DHT22;8918;52.092;5.232;2022-08-19T00:19:20;18.60;99.90
17599;DHT22;8918;52.092;5.232;2022-08-19T00:21:46;18.60;99.90
17599;DHT22;8918;52.092;5.232;2022-08-19T00:24:13;18.60;99.90
17599;DHT22;8918;52.092;5.232;2022-08-19T00:26:41;18.60;99.90
17599;DHT22;8918;52.092;5.232;2022-08-19T00:29:09;18.60;99.90
17599;DHT22;8918;52.092;5.232;2022-08-19T00:31:35;18.60;99.90
17599;DHT22;8918;52.092;5.232;2022-08-19T00:34:02;18.50;99.90
17599;DHT22;8918;52.092;5.232;2022-08-19T00:36:28;18.50;99.90
17599;DHT22;8918;52.092;5.232;2022-08-19T00:38:55;18.50;99.90
17599;DHT22;8918;52.092;5.232;2022-08-19T00:41:21;18.50;99.90
17599;DHT22;8918;52.092;5.232;2022-08-19T00:44:07;18.50;99.90
17599;DHT22;8918;52.092;5.232;2022-08-19T00:46:36;18.50;99.90
17599;DHT22;8918;52.092;5.232;2022-08-19T00:49:08;18.50;99.90
17599;DHT22;8918;52.092;5.232;2022-08-19T00:51:34;18.50;99.90
17599;DHT22;8918;52.092;5.232;2022-08-19T00:54:02;18.40;99.90
17599;DHT22;8918;52.092;5.232;2022-08-19T00:56:28;18.40;99.90
17599;DHT22;8918;52.092;5.232;2022-08-19T00:58:57;18.40;99.90
17599;DHT22;8918;52.092;5.232;2022-08-19T01:01:23;18.40;99.90
17599;DHT22;8918;52.092;5.232;2022-08-19T01:03:49;18.40;99.90
17599;DHT22;8918;52.092;5.232;2022-08-19T01:06:15;18.40;99.90
17599;DHT22;8918;52.092;5.232;2022-08-19T01:08:41;18.30;99.90
17599;DHT22;8918;52.092;5.232;2022-08-19T01:11:07;18.20;99.90
17599;DHT22;8918;52.092;5.232;2022-08-19T01:13:34;18.20;99.90
17599;DHT22;8918;52.092;5.232;2022-08-19T01:16:08;18.10;99.90
17599;DHT22;8918;52.092;5.232;2022-08-19T01:18:38;18.10;99.90
17599;DHT22;8918;52.092;5.232;2022-08-19T01:23:45;18.10;99.90
17599;DHT22;8918;52.092;5.232;2022-08-19T01:26:18;18.10;99.90
17599;DHT22;8918;52.092;5.232;2022-08-19T01:28:46;18.10;99.90
17599;DHT22;8918;52.092;5.232;2022-08-19T01:31:22;18.10;99.90
17599;DHT22;8918;52.092;5.232;2022-08-19T01:33:50;18.10;99.90
17599;DHT22;8918;52.092;5.232;2022-08-19T01:36:27;18.00;99.90
17599;DHT22;8918;52.092;5.232;2022-08-19T01:38:54;18.00;99.90
17599;DHT22;8918;52.092;5.232;2022-08-19T01:41:19;18.00;99.90
17599;DHT22;8918;52.092;5.232;2022-08-19T01:43:46;18.00;99.90
17599;DHT22;8918;52.092;5.232;2022-08-19T01:46:11;18.00;99.90
17599;DHT22;8918;52.092;5.232;2022-08-19T01:48:40;17.90;99.90
17599;DHT22;8918;52.092;5.232;2022-08-19T01:51:06;17.90;99.90
17599;DHT22;8918;52.092;5.232;2022-08-19T01:53:32;17.90;99.90
17599;DHT22;8918;52.092;5.232;2022-08-19T01:55:59;17.90;99.90
17599;DHT22;8918;52.092;5.232;2022-08-19T01:58:29;18.00;99.90
17599;DHT22;8918;52.092;5.232;2022-08-19T02:00:56;17.90;99.90
17599;DHT22;8918;52.092;5.232;2022-08-19T02:03:22;17.90;99.90
17599;DHT22;8918;52.092;5.232;2022-08-19T02:05:53;17.90;99.90
17599;DHT22;8918;52.092;5.232;2022-08-19T02:08:19;17.90;99.90
17599;DHT22;8918;52.092;5.232;2022-08-19T02:10:44;17.90;99.90
17599;DHT22;8918;52.092;5.232;2022-08-19T02:13:11;17.90;99.90
17599;DHT22;8918;52.092;5.232;2022-08-19T02:15:37;17.90;99.90
17599;DHT22;8918;52.092;5.232;2022-08-19T02:18:03;17.80;99.90
17599;DHT22;8918;52.092;5.232;2022-08-19T02:20:29;17.80;99.90
17599;DHT22;8918;52.092;5.232;2022-08-19T02:22:54;17.70;99.90
17599;DHT22;8918;52.092;5.232;2022-08-19T02:25:20;17.70;99.90
17599;DHT22;8918;52.092;5.232;2022-08-19T02:27:46;17.70;99.90
17599;DHT22;8918;52.092;5.232;2022-08-19T02:30:14;17.70;99.90
17599;DHT22;8918;52.092;5.232;2022-08-19T02:32:41;17.70;99.90
17599;DHT22;8918;52.092;5.232;2022-08-19T02:35:07;17.60;99.90
17599;DHT22;8918;52.092;5.232;2022-08-19T02:37:33;17.70;99.90
17599;DHT22;8918;52.092;5.232;2022-08-19T02:40:17;17.60;99.90
17599;DHT22;8918;52.092;5.232;2022-08-19T02:42:43;17.60;99.90
17599;DHT22;8918;52.092;5.232;2022-08-19T02:45:09;17.60;99.90
17599;DHT22;8918;52.092;5.232;2022-08-19T02:47:35;17.60;99.90
17599;DHT22;8918;52.092;5.232;2022-08-19T02:50:01;17.60;99.90
17599;DHT22;8918;52.092;5.232;2022-08-19T02:52:27;17.60;99.90
17599;DHT22;8918;52.092;5.232;2022-08-19T02:54:53;17.50;99.90
17599;DHT22;8918;52.092;5.232;2022-08-19T02:57:20;17.50;99.90
17599;DHT22;8918;52.092;5.232;2022-08-19T02:59:46;17.50;99.90
17599;DHT22;8918;52.092;5.232;2022-08-19T03:02:11;17.40;99.90
17599;DHT22;8918;52.092;5.232;2022-08-19T03:04:37;17.40;99.90
17599;DHT22;8918;52.092;5.232;2022-08-19T03:07:02;17.40;99.90
17599;DHT22;8918;52.092;5.232;2022-08-19T03:09:28;17.40;99.90
17599;DHT22;8918;52.092;5.232;2022-08-19T03:11:55;17.50;99.90
17599;DHT22;8918;52.092;5.232;2022-08-19T03:14:21;17.40;99.90
17599;DHT22;8918;52.092;5.232;2022-08-19T03:16:51;17.40;99.90
17599;DHT22;8918;52.092;5.232;2022-08-19T03:19:19;17.40;99.90
17599;DHT22;8918;52.092;5.232;2022-08-19T03:21:46;17.40;99.90
17599;DHT22;8918;52.092;5.232;2022-08-19T03:24:13;17.40;99.90
17599;DHT22;8918;52.092;5.232;2022-08-19T03:26:43;17.40;99.90
17599;DHT22;8918;52.092;5.232;2022-08-19T03:29:10;17.40;99.90
17599;DHT22;8918;52.092;5.232;2022-08-19T03:31:37;17.40;99.90
17599;DHT22;8918;52.092;5.232;2022-08-19T03:34:04;17.40;99.90
17599;DHT22;8918;52.092;5.232;2022-08-19T03:36:30;17.30;99.90
17599;DHT22;8918;52.092;5.232;2022-08-19T03:39:00;17.30;99.90
17599;DHT22;8918;52.092;5.232;2022-08-19T03:41:37;17.30;99.90
17599;DHT22;8918;52.092;5.232;2022-08-19T03:44:03;17.20;99.90
17599;DHT22;8918;52.092;5.232;2022-08-19T03:46:31;17.20;99.90
17599;DHT22;8918;52.092;5.232;2022-08-19T03:48:58;17.10;99.90
17599;DHT22;8918;52.092;5.232;2022-08-19T03:51:27;17.10;99.90
17599;DHT22;8918;52.092;5.232;2022-08-19T03:53:55;17.00;99.90
17599;DHT22;8918;52.092;5.232;2022-08-19T03:56:21;17.00;99.90
17599;DHT22;8918;52.092;5.232;2022-08-19T03:58:47;17.10;99.90
17599;DHT22;8918;52.092;5.232;2022-08-19T04:01:15;17.00;99.90
17599;DHT22;8918;52.092;5.232;2022-08-19T04:03:41;17.00;99.90
17599;DHT22;8918;52.092;5.232;2022-08-19T04:06:21;17.00;99.90
17599;DHT22;8918;52.092;5.232;2022-08-19T04:08:49;17.10;99.90
17599;DHT22;8918;52.092;5.232;2022-08-19T04:11:19;17.10;99.90
17599;DHT22;8918;52.092;5.232;2022-08-19T04:13:47;17.00;99.90
17599;DHT22;8918;52.092;5.232;2022-08-19T04:16:13;17.00;99.90
17599;DHT22;8918;52.092;5.232;2022-08-19T04:18:39;17.00;99.90
17599;DHT22;8918;52.092;5.232;2022-08-19T04:21:07;17.00;99.90
17599;DHT22;8918;52.092;5.232;2022-08-19T04:23:34;17.00;99.90
17599;DHT22;8918;52.092;5.232;2022-08-19T04:26:01;17.00;99.90
17599;DHT22;8918;52.092;5.232;2022-08-19T04:28:27;17.00;99.90
17599;DHT22;8918;52.092;5.232;2022-08-19T04:30:54;17.00;99.90
17599;DHT22;8918;52.092;5.232;2022-08-19T04:33:23;16.90;99.90
17599;DHT22;8918;52.092;5.232;2022-08-19T04:35:50;16.90;99.90
17599;DHT22;8918;52.092;5.232;2022-08-19T04:38:18;16.80;99.90
17599;DHT22;8918;52.092;5.232;2022-08-19T04:40:47;16.80;99.90
17599;DHT22;8918;52.092;5.232;2022-08-19T04:43:33;16.80;99.90
17599;DHT22;8918;52.092;5.232;2022-08-19T04:46:11;16.80;99.90
17599;DHT22;8918;52.092;5.232;2022-08-19T04:48:38;16.90;99.90
17599;DHT22;8918;52.092;5.232;2022-08-19T04:51:10;16.90;99.90
17599;DHT22;8918;52.092;5.232;2022-08-19T04:53:37;16.90;99.90
17599;DHT22;8918;52.092;5.232;2022-08-19T04:56:12;16.90;99.90
17599;DHT22;8918;52.092;5.232;2022-08-19T04:58:40;16.90;99.90
17599;DHT22;8918;52.092;5.232;2022-08-19T05:01:11;16.90;99.90
17599;DHT22;8918;52.092;5.232;2022-08-19T05:03:37;16.90;99.90
17599;DHT22;8918;52.092;5.232;2022-08-19T05:06:12;16.90;99.90
17599;DHT22;8918;52.092;5.232;2022-08-19T05:08:40;16.90;99.90
17599;DHT22;8918;52.092;5.232;2022-08-19T05:11:11;16.90;99.90
17599;DHT22;8918;52.092;5.232;2022-08-19T05:13:37;17.00;99.90
17599;DHT22;8918;52.092;5.232;2022-08-19T05:16:03;17.00;99.90
17599;DHT22;8918;52.092;5.232;2022-08-19T05:18:29;17.00;99.90
17599;DHT22;8918;52.092;5.232;2022-08-19T05:21:16;16.90;99.90
17599;DHT22;8918;52.092;5.232;2022-08-19T05:24:01;16.90;99.90
17599;DHT22;8918;52.092;5.232;2022-08-19T05:26:27;17.00;99.90
17599;DHT22;8918;52.092;5.232;2022-08-19T05:28:53;17.00;99.90
17599;DHT22;8918;52.092;5.232;2022-08-19T05:31:19;17.00;99.90
17599;DHT22;8918;52.092;5.232;2022-08-19T05:33:45;17.00;99.90
17599;DHT22;8918;52.092;5.232;2022-08-19T05:36:11;17.10;99.90
17599;DHT22;8918;52.092;5.232;2022-08-19T05:38:37;17.10;99.90
17599;DHT22;8918;52.092;5.232;2022-08-19T05:41:09;17.20;99.90
17599;DHT22;8918;52.092;5.232;2022-08-19T05:43:35;17.20;99.90
17599;DHT22;8918;52.092;5.232;2022-08-19T05:46:03;17.20;99.90
17599;DHT22;8918;52.092;5.232;2022-08-19T05:48:30;17.20;99.90
17599;DHT22;8918;52.092;5.232;2022-08-19T05:50:56;17.30;99.90
17599;DHT22;8918;52.092;5.232;2022-08-19T05:53:23;17.30;99.90
17599;DHT22;8918;52.092;5.232;2022-08-19T05:55:49;17.40;99.90
17599;DHT22;8918;52.092;5.232;2022-08-19T05:58:14;17.40;99.90
17599;DHT22;8918;52.092;5.232;2022-08-19T06:00:43;17.50;99.90
17599;DHT22;8918;52.092;5.232;2022-08-19T06:03:09;17.50;99.90
17599;DHT22;8918;52.092;5.232;2022-08-19T06:05:35;17.60;99.90
17599;DHT22;8918;52.092;5.232;2022-08-19T06:08:01;17.60;99.90
17599;DHT22;8918;52.092;5.232;2022-08-19T06:10:27;17.70;99.90
17599;DHT22;8918;52.092;5.232;2022-08-19T06:12:53;17.70;99.90
17599;DHT22;8918;52.092;5.232;2022-08-19T06:15:19;17.80;99.90
17599;DHT22;8918;52.092;5.232;2022-08-19T06:17:47;17.80;99.90
17599;DHT22;8918;52.092;5.232;2022-08-19T06:20:14;17.90;99.90
17599;DHT22;8918;52.092;5.232;2022-08-19T06:22:46;18.00;99.90
17599;DHT22;8918;52.092;5.232;2022-08-19T06:25:14;18.00;99.90
17599;DHT22;8918;52.092;5.232;2022-08-19T06:27:40;18.10;99.90
17599;DHT22;8918;52.092;5.232;2022-08-19T06:30:06;18.20;99.90
17599;DHT22;8918;52.092;5.232;2022-08-19T06:32:32;18.20;99.90
17599;DHT22;8918;52.092;5.232;2022-08-19T06:34:58;18.30;99.90
17599;DHT22;8918;52.092;5.232;2022-08-19T06:37:23;18.30;99.90
17599;DHT22;8918;52.092;5.232;2022-08-19T06:39:50;18.30;99.90
17599;DHT22;8918;52.092;5.232;2022-08-19T06:42:16;18.40;99.90
17599;DHT22;8918;52.092;5.232;2022-08-19T06:44:45;18.40;99.90
17599;DHT22;8918;52.092;5.232;2022-08-19T06:47:14;18.40;99.90
17599;DHT22;8918;52.092;5.232;2022-08-19T06:49:41;18.40;99.90
17599;DHT22;8918;52.092;5.232;2022-08-19T06:52:08;18.50;99.90
17599;DHT22;8918;52.092;5.232;2022-08-19T06:54:34;18.50;99.90
17599;DHT22;8918;52.092;5.232;2022-08-19T06:57:01;18.60;99.90
17599;DHT22;8918;52.092;5.232;2022-08-19T06:59:28;18.60;99.90
17599;DHT22;8918;52.092;5.232;2022-08-19T07:01:56;18.60;99.90
17599;DHT22;8918;52.092;5.232;2022-08-19T07:04:24;18.60;99.90
17599;DHT22;8918;52.092;5.232;2022-08-19T07:06:58;18.60;99.90
17599;DHT22;8918;52.092;5.232;2022-08-19T07:09:23;18.70;99.90
17599;DHT22;8918;52.092;5.232;2022-08-19T07:11:51;18.70;99.90
17599;DHT22;8918;52.092;5.232;2022-08-19T07:14:24;18.80;99.90
17599;DHT22;8918;52.092;5.232;2022-08-19T07:16:51;18.80;99.90
17599;DHT22;8918;52.092;5.232;2022-08-19T07:19:20;18.80;99.90
17599;DHT22;8918;52.092;5.232;2022-08-19T07:21:48;18.80;99.90
17599;DHT22;8918;52.092;5.232;2022-08-19T07:24:15;18.90;99.90
17599;DHT22;8918;52.092;5.232;2022-08-19T07:26:42;18.90;99.90
17599;DHT22;8918;52.092;5.232;2022-08-19T07:29:09;18.80;99.90
17599;DHT22;8918;52.092;5.232;2022-08-19T07:31:35;18.90;99.90
17599;DHT22;8918;52.092;5.232;2022-08-19T07:34:04;18.90;99.90
17599;DHT22;8918;52.092;5.232;2022-08-19T07:36:35;19.00;99.90
17599;DHT22;8918;52.092;5.232;2022-08-19T07:39:05;19.00;99.90
17599;DHT22;8918;52.092;5.232;2022-08-19T07:41:31;19.00;99.90
17599;DHT22;8918;52.092;5.232;2022-08-19T07:43:59;19.00;99.90
17599;DHT22;8918;52.092;5.232;2022-08-19T07:46:32;19.10;99.90
17599;DHT22;8918;52.092;5.232;2022-08-19T07:48:58;19.20;99.90
17599;DHT22;8918;52.092;5.232;2022-08-19T07:51:26;19.30;99.90
17599;DHT22;8918;52.092;5.232;2022-08-19T07:53:51;19.40;99.90
17599;DHT22;8918;52.092;5.232;2022-08-19T07:56:19;19.50;99.90
17599;DHT22;8918;52.092;5.232;2022-08-19T07:58:47;19.60;99.90
17599;DHT22;8918;52.092;5.232;2022-08-19T08:01:18;19.70;99.90
17599;DHT22;8918;52.092;5.232;2022-08-19T08:03:44;19.70;99.90
17599;DHT22;8918;52.092;5.232;2022-08-19T08:06:29;19.70;99.90
17599;DHT22;8918;52.092;5.232;2022-08-19T08:09:16;19.80;99.90
17599;DHT22;8918;52.092;5.232;2022-08-19T08:11:52;19.80;99.90
17599;DHT22;8918;52.092;5.232;2022-08-19T08:14:31;19.80;99.90
17599;DHT22;8918;52.092;5.232;2022-08-19T08:16:58;19.90;99.90
17599;DHT22;8918;52.092;5.232;2022-08-19T08:19:26;19.90;99.90
17599;DHT22;8918;52.092;5.232;2022-08-19T08:21:57;20.00;99.90
17599;DHT22;8918;52.092;5.232;2022-08-19T08:24:24;20.10;99.90
17599;DHT22;8918;52.092;5.232;2022-08-19T08:26:49;20.20;99.90
17599;DHT22;8918;52.092;5.232;2022-08-19T08:29:15;20.30;99.90
17599;DHT22;8918;52.092;5.232;2022-08-19T08:31:43;20.30;99.90
17599;DHT22;8918;52.092;5.232;2022-08-19T08:34:10;20.30;99.90
17599;DHT22;8918;52.092;5.232;2022-08-19T08:36:40;20.30;99.90
17599;DHT22;8918;52.092;5.232;2022-08-19T08:39:09;20.30;99.90
17599;DHT22;8918;52.092;5.232;2022-08-19T08:44:51;20.40;99.90
17599;DHT22;8918;52.092;5.232;2022-08-19T08:47:20;20.40;99.90
17599;DHT22;8918;52.092;5.232;2022-08-19T08:49:51;20.40;99.90
17599;DHT22;8918;52.092;5.232;2022-08-19T08:52:26;20.50;99.90
17599;DHT22;8918;52.092;5.232;2022-08-19T08:54:57;20.70;99.90
17599;DHT22;8918;52.092;5.232;2022-08-19T08:57:33;20.80;99.90
17599;DHT22;8918;52.092;5.232;2022-08-19T09:00:05;20.90;99.90
17599;DHT22;8918;52.092;5.232;2022-08-19T09:02:31;21.00;99.90
17599;DHT22;8918;52.092;5.232;2022-08-19T09:04:57;21.00;99.90
17599;DHT22;8918;52.092;5.232;2022-08-19T09:10:29;21.10;99.90
17599;DHT22;8918;52.092;5.232;2022-08-19T09:13:21;21.00;99.90
17599;DHT22;8918;52.092;5.232;2022-08-19T09:16:02;21.00;99.90
17599;DHT22;8918;52.092;5.232;2022-08-19T09:18:45;20.90;99.90
17599;DHT22;8918;52.092;5.232;2022-08-19T09:21:13;21.00;99.90
17599;DHT22;8918;52.092;5.232;2022-08-19T09:23:39;21.10;99.90
17599;DHT22;8918;52.092;5.232;2022-08-19T09:26:10;21.20;99.90
17599;DHT22;8918;52.092;5.232;2022-08-19T09:28:42;21.30;99.90
17599;DHT22;8918;52.092;5.232;2022-08-19T09:31:10;21.30;99.90
17599;DHT22;8918;52.092;5.232;2022-08-19T09:33:37;21.40;99.90
17599;DHT22;8918;52.092;5.232;2022-08-19T09:36:05;21.50;99.90
17599;DHT22;8918;52.092;5.232;2022-08-19T09:38:32;21.60;99.90
17599;DHT22;8918;52.092;5.232;2022-08-19T09:41:03;21.70;99.90
17599;DHT22;8918;52.092;5.232;2022-08-19T09:43:30;21.70;99.90
17599;DHT22;8918;52.092;5.232;2022-08-19T09:45:56;21.60;99.90
17599;DHT22;8918;52.092;5.232;2022-08-19T09:48:22;21.60;99.90
17599;DHT22;8918;52.092;5.232;2022-08-19T09:50:47;21.50;99.90
17599;DHT22;8918;52.092;5.232;2022-08-19T09:53:13;21.50;99.90
17599;DHT22;8918;52.092;5.232;2022-08-19T09:55:43;21.50;99.90
17599;DHT22;8918;52.092;5.232;2022-08-19T09:58:08;21.50;99.90
17599;DHT22;8918;52.092;5.232;2022-08-19T10:00:34;21.50;99.90
17599;DHT22;8918;52.092;5.232;2022-08-19T10:03:01;21.50;99.90
17599;DHT22;8918;52.092;5.232;2022-08-19T10:05:27;21.50;99.90
17599;DHT22;8918;52.092;5.232;2022-08-19T10:08:11;21.60;99.90
17599;DHT22;8918;52.092;5.232;2022-08-19T10:10:37;21.60;99.90
17599;DHT22;8918;52.092;5.232;2022-08-19T10:13:03;21.60;99.90
17599;DHT22;8918;52.092;5.232;2022-08-19T10:15:29;21.70;99.90
17599;DHT22;8918;52.092;5.232;2022-08-19T10:17:55;21.80;99.90
17599;DHT22;8918;52.092;5.232;2022-08-19T10:20:21;21.80;99.90
17599;DHT22;8918;52.092;5.232;2022-08-19T10:22:47;21.70;99.90
17599;DHT22;8918;52.092;5.232;2022-08-19T10:25:13;21.70;99.90
17599;DHT22;8918;52.092;5.232;2022-08-19T10:27:39;21.70;99.90
17599;DHT22;8918;52.092;5.232;2022-08-19T10:30:05;21.80;99.90
17599;DHT22;8918;52.092;5.232;2022-08-19T10:32:31;21.80;99.90
17599;DHT22;8918;52.092;5.232;2022-08-19T10:34:57;21.90;99.90
17599;DHT22;8918;52.092;5.232;2022-08-19T10:37:22;21.90;99.90
17599;DHT22;8918;52.092;5.232;2022-08-19T10:39:48;22.10;99.90
17599;DHT22;8918;52.092;5.232;2022-08-19T10:42:14;22.40;99.90
17599;DHT22;8918;52.092;5.232;2022-08-19T10:44:41;22.70;99.90
17599;DHT22;8918;52.092;5.232;2022-08-19T10:47:07;22.90;99.90
17599;DHT22;8918;52.092;5.232;2022-08-19T10:49:32;22.90;99.90
17599;DHT22;8918;52.092;5.232;2022-08-19T10:52:18;23.10;99.90
17599;DHT22;8918;52.092;5.232;2022-08-19T10:54:59;23.20;99.90
17599;DHT22;8918;52.092;5.232;2022-08-19T10:57:43;23.40;99.90
17599;DHT22;8918;52.092;5.232;2022-08-19T11:00:10;23.70;99.90
17599;DHT22;8918;52.092;5.232;2022-08-19T11:02:38;24.00;99.90
17599;DHT22;8918;52.092;5.232;2022-08-19T11:05:04;24.00;99.90
17599;DHT22;8918;52.092;5.232;2022-08-19T11:07:30;24.20;99.90
17599;DHT22;8918;52.092;5.232;2022-08-19T11:09:56;24.30;99.90
17599;DHT22;8918;52.092;5.232;2022-08-19T11:12:21;24.50;99.90
17599;DHT22;8918;52.092;5.232;2022-08-19T11:14:47;24.70;99.90
17599;DHT22;8918;52.092;5.232;2022-08-19T11:17:15;24.80;99.90
17599;DHT22;8918;52.092;5.232;2022-08-19T11:19:40;24.80;99.90
17599;DHT22;8918;52.092;5.232;2022-08-19T11:22:08;24.80;99.90
17599;DHT22;8918;52.092;5.232;2022-08-19T11:24:35;24.80;99.90
17599;DHT22;8918;52.092;5.232;2022-08-19T11:27:04;24.60;99.90
17599;DHT22;8918;52.092;5.232;2022-08-19T11:29:32;24.40;99.90
17599;DHT22;8918;52.092;5.232;2022-08-19T11:31:59;24.30;99.90
17599;DHT22;8918;52.092;5.232;2022-08-19T11:34:27;24.20;99.90
17599;DHT22;8918;52.092;5.232;2022-08-19T11:36:54;24.10;99.90
17599;DHT22;8918;52.092;5.232;2022-08-19T11:39:23;23.90;99.90
17599;DHT22;8918;52.092;5.232;2022-08-19T11:41:50;23.80;99.90
17599;DHT22;8918;52.092;5.232;2022-08-19T11:44:15;23.60;99.90
17599;DHT22;8918;52.092;5.232;2022-08-19T11:46:43;23.40;99.90
17599;DHT22;8918;52.092;5.232;2022-08-19T11:49:13;23.30;99.90
17599;DHT22;8918;52.092;5.232;2022-08-19T11:51:40;23.20;99.90
17599;DHT22;8918;52.092;5.232;2022-08-19T11:54:08;23.10;99.90
17599;DHT22;8918;52.092;5.232;2022-08-19T11:56:36;23.00;99.90
17599;DHT22;8918;52.092;5.232;2022-08-19T11:59:01;22.90;99.90
17599;DHT22;8918;52.092;5.232;2022-08-19T12:01:27;22.90;99.90
17599;DHT22;8918;52.092;5.232;2022-08-19T12:03:55;22.80;99.90
17599;DHT22;8918;52.092;5.232;2022-08-19T12:06:24;22.80;99.90
17599;DHT22;8918;52.092;5.232;2022-08-19T12:08:51;22.80;99.90
17599;DHT22;8918;52.092;5.232;2022-08-19T12:11:17;22.70;99.90
17599;DHT22;8918;52.092;5.232;2022-08-19T12:13:43;22.60;99.90
17599;DHT22;8918;52.092;5.232;2022-08-19T12:16:25;22.50;99.90
17599;DHT22;8918;52.092;5.232;2022-08-19T12:18:52;22.50;99.90
17599;DHT22;8918;52.092;5.232;2022-08-19T12:21:25;22.40;99.90
17599;DHT22;8918;52.092;5.232;2022-08-19T12:23:54;22.50;99.90
17599;DHT22;8918;52.092;5.232;2022-08-19T12:26:20;22.50;99.90
17599;DHT22;8918;52.092;5.232;2022-08-19T12:28:46;22.50;99.90
17599;DHT22;8918;52.092;5.232;2022-08-19T12:31:13;22.60;99.90
17599;DHT22;8918;52.092;5.232;2022-08-19T12:33:39;22.70;99.90
17599;DHT22;8918;52.092;5.232;2022-08-19T12:36:08;22.80;99.90
17599;DHT22;8918;52.092;5.232;2022-08-19T12:38:34;22.90;99.90
17599;DHT22;8918;52.092;5.232;2022-08-19T12:41:01;22.90;99.90
17599;DHT22;8918;52.092;5.232;2022-08-19T12:43:30;22.90;99.90
17599;DHT22;8918;52.092;5.232;2022-08-19T12:45:56;22.80;99.90
17599;DHT22;8918;52.092;5.232;2022-08-19T12:48:21;22.80;99.90
17599;DHT22;8918;52.092;5.232;2022-08-19T12:50:47;22.80;99.90
17599;DHT22;8918;52.092;5.232;2022-08-19T12:53:13;22.90;99.90
17599;DHT22;8918;52.092;5.232;2022-08-19T12:55:39;23.00;99.90
17599;DHT22;8918;52.092;5.232;2022-08-19T12:58:05;23.20;99.90
17599;DHT22;8918;52.092;5.232;2022-08-19T13:00:31;23.40;99.90
17599;DHT22;8918;52.092;5.232;2022-08-19T13:02:58;23.50;99.90
17599;DHT22;8918;52.092;5.232;2022-08-19T13:05:27;23.60;99.90
17599;DHT22;8918;52.092;5.232;2022-08-19T13:07:54;23.50;99.90
17599;DHT22;8918;52.092;5.232;2022-08-19T13:10:23;23.40;99.90
17599;DHT22;8918;52.092;5.232;2022-08-19T13:12:50;23.30;99.90
17599;DHT22;8918;52.092;5.232;2022-08-19T13:15:18;23.20;99.90
17599;DHT22;8918;52.092;5.232;2022-08-19T13:17:49;23.20;99.90
17599;DHT22;8918;52.092;5.232;2022-08-19T13:20:16;23.10;99.90
17599;DHT22;8918;52.092;5.232;2022-08-19T13:22:42;23.00;99.90
17599;DHT22;8918;52.092;5.232;2022-08-19T13:25:11;22.90;99.90
17599;DHT22;8918;52.092;5.232;2022-08-19T13:27:38;22.80;99.90
17599;DHT22;8918;52.092;5.232;2022-08-19T13:30:06;22.70;99.90
17599;DHT22;8918;52.092;5.232;2022-08-19T13:32:50;22.60;99.90
17599;DHT22;8918;52.092;5.232;2022-08-19T13:35:35;22.50;99.90
17599;DHT22;8918;52.092;5.232;2022-08-19T13:38:00;22.40;99.90
17599;DHT22;8918;52.092;5.232;2022-08-19T13:40:31;22.30;99.90
17599;DHT22;8918;52.092;5.232;2022-08-19T13:43:00;22.20;99.90
17599;DHT22;8918;52.092;5.232;2022-08-19T13:45:28;22.10;99.90
17599;DHT22;8918;52.092;5.232;2022-08-19T13:47:57;22.10;99.90
17599;DHT22;8918;52.092;5.232;2022-08-19T13:50:28;22.00;99.90
17599;DHT22;8918;52.092;5.232;2022-08-19T13:52:55;22.00;99.90
17599;DHT22;8918;52.092;5.232;2022-08-19T13:55:21;21.90;99.90
17599;DHT22;8918;52.092;5.232;2022-08-19T13:57:55;21.90;99.90
17599;DHT22;8918;52.092;5.232;2022-08-19T14:00:22;21.80;99.90
17599;DHT22;8918;52.092;5.232;2022-08-19T14:02:52;21.80;99.90
17599;DHT22;8918;52.092;5.232;2022-08-19T14:05:18;21.80;99.90
17599;DHT22;8918;52.092;5.232;2022-08-19T14:07:44;21.90;99.90
17599;DHT22;8918;52.092;5.232;2022-08-19T14:10:11;21.90;99.90
17599;DHT22;8918;52.092;5.232;2022-08-19T14:12:38;21.90;99.90
17599;DHT22;8918;52.092;5.232;2022-08-19T14:15:05;21.90;99.90
17599;DHT22;8918;52.092;5.232;2022-08-19T14:17:31;21.80;99.90
17599;DHT22;8918;52.092;5.232;2022-08-19T14:20:04;21.80;99.90
17599;DHT22;8918;52.092;5.232;2022-08-19T14:22:38;21.80;99.90
17599;DHT22;8918;52.092;5.232;2022-08-19T14:25:06;21.80;99.90
17599;DHT22;8918;52.092;5.232;2022-08-19T14:27:36;21.80;99.90
17599;DHT22;8918;52.092;5.232;2022-08-19T14:30:08;21.80;99.90
17599;DHT22;8918;52.092;5.232;2022-08-19T14:32:34;21.80;99.90
17599;DHT22;8918;52.092;5.232;2022-08-19T14:35:01;21.80;99.90
17599;DHT22;8918;52.092;5.232;2022-08-19T14:37:27;21.80;99.90
17599;DHT22;8918;52.092;5.232;2022-08-19T14:39:52;21.80;99.90
17599;DHT22;8918;52.092;5.232;2022-08-19T14:42:18;21.90;99.90
17599;DHT22;8918;52.092;5.232;2022-08-19T14:44:44;22.10;99.90
17599;DHT22;8918;52.092;5.232;2022-08-19T14:47:10;22.20;99.90
17599;DHT22;8918;52.092;5.232;2022-08-19T14:49:36;22.20;99.90
17599;DHT22;8918;52.092;5.232;2022-08-19T14:52:03;22.30;99.90
17599;DHT22;8918;52.092;5.232;2022-08-19T14:54:29;22.30;99.90
17599;DHT22;8918;52.092;5.232;2022-08-19T14:56:54;22.30;99.90
17599;DHT22;8918;52.092;5.232;2022-08-19T14:59:20;22.30;99.90
17599;DHT22;8918;52.092;5.232;2022-08-19T15:01:45;22.40;99.90
17599;DHT22;8918;52.092;5.232;2022-08-19T15:04:11;22.40;99.90
17599;DHT22;8918;52.092;5.232;2022-08-19T15:06:37;22.50;99.90
17599;DHT22;8918;52.092;5.232;2022-08-19T15:09:03;22.60;99.90
17599;DHT22;8918;52.092;5.232;2022-08-19T15:11:29;22.70;99.90
17599;DHT22;8918;52.092;5.232;2022-08-19T15:13:58;22.80;99.90
17599;DHT22;8918;52.092;5.232;2022-08-19T15:16:24;22.90;99.90
17599;DHT22;8918;52.092;5.232;2022-08-19T15:18:53;23.00;99.90
17599;DHT22;8918;52.092;5.232;2022-08-19T15:21:20;23.10;99.90
17599;DHT22;8918;52.092;5.232;2022-08-19T15:23:48;23.20;99.90
17599;DHT22;8918;52.092;5.232;2022-08-19T15:26:16;23.40;99.90
17599;DHT22;8918;52.092;5.232;2022-08-19T15:28:42;23.60;99.90
17599;DHT22;8918;52.092;5.232;2022-08-19T15:31:08;23.60;99.90
17599;DHT22;8918;52.092;5.232;2022-08-19T15:33:35;23.60;99.90
17599;DHT22;8918;52.092;5.232;2022-08-19T15:36:06;23.60;99.90
17599;DHT22;8918;52.092;5.232;2022-08-19T15:38:33;23.50;99.90
17599;DHT22;8918;52.092;5.232;2022-08-19T15:41:00;23.30;99.90
17599;DHT22;8918;52.092;5.232;2022-08-19T15:43:47;23.20;99.90
17599;DHT22;8918;52.092;5.232;2022-08-19T15:46:18;23.10;99.90
17599;DHT22;8918;52.092;5.232;2022-08-19T15:48:45;23.20;99.90
17599;DHT22;8918;52.092;5.232;2022-08-19T15:51:11;23.40;99.90
17599;DHT22;8918;52.092;5.232;2022-08-19T15:53:36;23.50;99.90
17599;DHT22;8918;52.092;5.232;2022-08-19T15:56:02;23.60;99.90
17599;DHT22;8918;52.092;5.232;2022-08-19T15:58:28;23.70;99.90
17599;DHT22;8918;52.092;5.232;2022-08-19T16:01:12;23.70;99.90